Mumbai Express — V2AH1 — position and weather

sailwx.info

Track history (hours):
 
Tides and Currents Weather Stations Pressure Air Temp Water Temp Dewpoint Dewpoint Depression Visibility Wind Speed Wind Dir Waves Ship Positions

Mumbai Express

Last reported at 2015-Jun-29 16:28 UTC. Time now 2015-Jul-01 12:45 UTC.
Position N 49°48' W 010°49'.

Length 260.7 m; beam 32.3 m; draft 12.5 m.

Type: Ship (hazmat cat A). MMSI: 304010914.

Date/timePositionNaut miles runAvg speedWind from/ knotsBaromVisibWave heightAir tempDewpointWater temp
2015-Jun-29 16:28N 49°48' W 010°49'9618.9
2015-Jun-29 11:23N 49°46' W 008°20'3819.6
2015-Jun-29 09:25N 49°44' W 007°20'1820.6
2015-Jun-29 08:32N 49°43' W 006°52'2021.0
2015-Jun-29 07:33N 49°43' W 006°21'10520.2
2015-Jun-29 02:23N 49°56' W 003°39'1720.2
2015-Jun-29 01:33N 49°59' W 003°14'2121.1
2015-Jun-29 00:33N 50°03' W 002°42'2222.1
2015-Jun-28 23:33N 50°08' W 002°08'2622.6
2015-Jun-28 22:24N 50°15' W 001°29'2621.6
2015-Jun-28 21:12N 50°22' W 000°49'3319.9
2015-Jun-28 19:33N 50°30' E 000°00'1919.0
2015-Jun-28 18:33N 50°36' E 000°29'2019.5
2015-Jun-28 17:33N 50°46' E 000°55'2120.8
2015-Jun-28 16:33N 50°58' E 001°22'2222.2
2015-Jun-28 15:34N 51°14' E 001°46'2121.0
2015-Jun-28 14:33N 51°31' E 002°06'2020.0
2015-Jun-28 13:33N 51°47' E 002°26'1919.3
2015-Jun-28 12:33N 52°03' E 002°43'1918.6
2015-Jun-28 11:33N 52°16' E 003°04'1919.1
2015-Jun-28 10:33N 52°32' E 003°23'1919.5
2015-Jun-28 09:33N 52°47' E 003°43'2019.7
2015-Jun-28 08:34N 53°01' E 004°05'2219.6
2015-Jun-28 07:25N 53°18' E 004°30'1618.7
2015-Jun-28 06:33N 53°30' E 004°48'1919.5
2015-Jun-28 05:34N 53°37' E 005°18'1918.9
2015-Jun-28 04:34N 53°43' E 005°48'1918.9
2015-Jun-28 03:33N 53°49' E 006°18'1919.2
2015-Jun-28 02:33N 53°54' E 006°50'2019.8
2015-Jun-28 01:33N 53°59' E 007°23'1715.9
2015-Jun-28 00:29N 53°52' E 007°50'1314.2
2015-Jun-27 23:33N 53°46' E 008°10'1616.2
2015-Jun-27 22:33N 53°36' E 008°31'2 1.5
2015-Jun-27 21:33N 53°35' E 008°32'0 0.0
2015-Jun-27 20:33N 53°35' E 008°32'0 0.0
2015-Jun-27 19:32N 53°35' E 008°32'0 0.0
2015-Jun-27 18:32N 53°35' E 008°32'0 0.0
2015-Jun-27 17:31N 53°35' E 008°32'0 0.0
2015-Jun-27 16:31N 53°35' E 008°32'0 0.0
2015-Jun-27 15:31N 53°35' E 008°32'0 0.0
2015-Jun-27 14:33N 53°35' E 008°32'0 0.0
2015-Jun-27 13:33N 53°35' E 008°32'0 0.0
2015-Jun-27 12:32N 53°35' E 008°32'0 0.0
2015-Jun-27 11:32N 53°35' E 008°32'0 0.0
2015-Jun-27 10:31N 53°35' E 008°32'0 0.0
2015-Jun-27 09:31N 53°35' E 008°32'0 0.0
2015-Jun-27 08:31N 53°35' E 008°32'0 0.0
2015-Jun-27 07:33N 53°35' E 008°32'0 0.0
2015-Jun-27 06:33N 53°35' E 008°32'0 0.0
2015-Jun-27 05:33N 53°35' E 008°32'0 0.0
2015-Jun-27 04:32N 53°35' E 008°32'0 0.0
2015-Jun-27 03:33N 53°35' E 008°32'5 5.4
2015-Jun-27 02:33N 53°38' E 008°25'1717.0
2015-Jun-27 01:33N 53°50' E 008°04'1313.2
2015-Jun-27 00:33N 53°53' E 007°42'1515.0
2015-Jun-26 23:34N 53°53' E 007°17'1919.3
2015-Jun-26 22:33N 53°48' E 006°46'1919.2
2015-Jun-26 21:33N 53°44' E 006°14'1919.4
2015-Jun-26 20:34N 53°37' E 005°43'1919.3
2015-Jun-26 19:33N 53°31' E 005°13'1919.2
2015-Jun-26 18:33N 53°23' E 004°43'2019.6
2015-Jun-26 17:33N 53°06' E 004°26'2019.6
2015-Jun-26 16:33N 52°49' E 004°12'1919.4
2015-Jun-26 15:33N 52°32' E 003°56'1919.0
2015-Jun-26 14:33N 52°13' E 003°54'1313.0
2015-Jun-26 13:33N 52°01' E 003°60'4 3.7
2015-Jun-26 12:34N 51°58' E 004°03'0 0.0
2015-Jun-26 11:33N 51°58' E 004°03'0 0.0
2015-Jun-26 10:33N 51°58' E 004°03'0 0.0
2015-Jun-26 09:33N 51°58' E 004°03'0 0.0
2015-Jun-26 08:33N 51°58' E 004°03'0 0.0
2015-Jun-26 07:34N 51°58' E 004°03'0 0.0
2015-Jun-26 06:33N 51°58' E 004°03'0 0.0
2015-Jun-26 05:33N 51°58' E 004°03'0 0.0
2015-Jun-26 04:33N 51°58' E 004°03'0 0.0
2015-Jun-26 03:33N 51°58' E 004°03'0 0.0
2015-Jun-26 02:34N 51°58' E 004°03'0 0.0
2015-Jun-26 01:34N 51°58' E 004°03'0 0.0
2015-Jun-26 00:34N 51°58' E 004°03'1 1.2
2015-Jun-25 23:34N 51°58' E 004°05'10 9.6
2015-Jun-25 22:33N 51°60' E 003°50'1413.6
2015-Jun-25 21:33N 51°56' E 003°28'1515.5
2015-Jun-25 20:33N 51°43' E 003°15'1515.3
2015-Jun-25 19:33N 51°30' E 003°28'1110.5
2015-Jun-25 18:33N 51°25' E 003°43'9 9.4
2015-Jun-25 17:33N 51°25' E 003°58'9 8.5
2015-Jun-25 16:33N 51°24' E 004°11'5 4.9
2015-Jun-25 15:33N 51°21' E 004°17'0 0.1
2015-Jun-25 14:33N 51°21' E 004°17'1 1.0
2015-Jun-25 13:33N 51°20' E 004°18'1 1.4
2015-Jun-25 12:33N 51°20' E 004°20'0 0.0
2015-Jun-25 11:33N 51°20' E 004°21'0 0.0
2015-Jun-25 10:32N 51°20' E 004°20'0 0.0
2015-Jun-25 09:29N 51°20' E 004°20'0 0.0
2015-Jun-25 08:31N 51°20' E 004°21'0 0.0
2015-Jun-25 07:31N 51°20' E 004°20'0 0.0
2015-Jun-25 06:21N 51°20' E 004°21'0 0.0
2015-Jun-25 05:30N 51°20' E 004°21'0 0.0
2015-Jun-25 04:33N 51°20' E 004°20'0 0.0
2015-Jun-25 03:32N 51°20' E 004°21'0 0.0
2015-Jun-25 02:29N 51°20' E 004°20'0 0.0
2015-Jun-25 01:31N 51°20' E 004°21'0 0.0
2015-Jun-25 00:25N 51°20' E 004°20'0 0.0
2015-Jun-24 23:31N 51°20' E 004°21'0 0.0
2015-Jun-24 22:33N 51°20' E 004°21'0 0.0
2015-Jun-24 21:33N 51°20' E 004°21'0 0.0
2015-Jun-24 20:14N 51°20' E 004°21'0 0.0
2015-Jun-24 19:32N 51°20' E 004°20'0 0.0
2015-Jun-24 18:31N 51°20' E 004°20'0 0.0
2015-Jun-24 17:26N 51°20' E 004°21'2 2.4
2015-Jun-24 16:33N 51°21' E 004°17'0 0.2
2015-Jun-24 15:33N 51°21' E 004°17'5 5.1
2015-Jun-24 14:33N 51°23' E 004°10'8 7.8
2015-Jun-24 13:33N 51°24' E 003°57'9 9.3
2015-Jun-24 12:33N 51°25' E 003°42'1110.9
2015-Jun-24 11:33N 51°25' E 003°25'1615.8
2015-Jun-24 10:33N 51°23' E 002°60'1413.8
2015-Jun-24 09:33N 51°22' E 002°38'10 9.5
2015-Jun-24 08:33N 51°20' E 002°23'1111.1
2015-Jun-24 07:33N 51°14' E 002°08'1313.0
2015-Jun-24 06:33N 51°08' E 001°49'1413.9
2015-Jun-24 05:33N 50°59' E 001°33'1616.4
2015-Jun-24 04:33N 50°44' E 001°22'1616.3
2015-Jun-24 03:33N 50°32' E 001°04'5516.4
2015-Jun-24 00:12N 50°16' W 000°18'1216.5
2015-Jun-23 23:30N 50°13' W 000°36'1716.8
2015-Jun-23 22:30N 50°09' W 001°01'1617.1
2015-Jun-23 21:33N 50°05' W 001°26'1816.6
2015-Jun-23 20:29N 49°60' W 001°52'26218.1
2015-Jun-23 06:00N 49°36' W 008°36'6220.7 130 / 131019.010.8 1.513.5 9.0
2015-Jun-23 03:00N 49°36' W 010°12'21519.5 290 / 21017.0 2.2 0.516.0
2015-Jun-22 16:00N 49°24' W 015°42'55819.9 220 / 151017.0 5.4 2.020.0
2015-Jun-21 12:00N 47°42' W 029°30'88020.9 230 / 301012.0 0.5 3.018.0
2015-Jun-19 18:00N 42°12' W 048°42'   060 / 231013.0 5.4 2.519.0
Track history (hours):
 
Tides and Currents Weather Stations Pressure Air Temp Water Temp Dewpoint Dewpoint Depression Visibility Wind Speed Wind Dir Waves Ship Positions

Mumbai Express

Last reported at 2015-Jun-29 16:28 UTC. Time now 2015-Jul-01 12:45 UTC.
Position N 49°48' W 010°49'.

Length 260.7 m; beam 32.3 m; draft 12.5 m.

Type: Ship (hazmat cat A). MMSI: 304010914.

Date/timePositionNaut miles runAvg speedWind from/ knotsBaromVisibWave heightAir tempDewpointWater temp
2015-Jun-29 16:28N 49°48' W 010°49'9618.9
2015-Jun-29 11:23N 49°46' W 008°20'3819.6
2015-Jun-29 09:25N 49°44' W 007°20'1820.6
2015-Jun-29 08:32N 49°43' W 006°52'2021.0
2015-Jun-29 07:33N 49°43' W 006°21'10520.2
2015-Jun-29 02:23N 49°56' W 003°39'1720.2
2015-Jun-29 01:33N 49°59' W 003°14'2121.1
2015-Jun-29 00:33N 50°03' W 002°42'2222.1
2015-Jun-28 23:33N 50°08' W 002°08'2622.6
2015-Jun-28 22:24N 50°15' W 001°29'2621.6
2015-Jun-28 21:12N 50°22' W 000°49'3319.9
2015-Jun-28 19:33N 50°30' E 000°00'1919.0
2015-Jun-28 18:33N 50°36' E 000°29'2019.5
2015-Jun-28 17:33N 50°46' E 000°55'2120.8
2015-Jun-28 16:33N 50°58' E 001°22'2222.2
2015-Jun-28 15:34N 51°14' E 001°46'2121.0
2015-Jun-28 14:33N 51°31' E 002°06'2020.0
2015-Jun-28 13:33N 51°47' E 002°26'1919.3
2015-Jun-28 12:33N 52°03' E 002°43'1918.6
2015-Jun-28 11:33N 52°16' E 003°04'1919.1
2015-Jun-28 10:33N 52°32' E 003°23'1919.5
2015-Jun-28 09:33N 52°47' E 003°43'2019.7
2015-Jun-28 08:34N 53°01' E 004°05'2219.6
2015-Jun-28 07:25N 53°18' E 004°30'1618.7
2015-Jun-28 06:33N 53°30' E 004°48'1919.5
2015-Jun-28 05:34N 53°37' E 005°18'1918.9
2015-Jun-28 04:34N 53°43' E 005°48'1918.9
2015-Jun-28 03:33N 53°49' E 006°18'1919.2
2015-Jun-28 02:33N 53°54' E 006°50'2019.8
2015-Jun-28 01:33N 53°59' E 007°23'1715.9
2015-Jun-28 00:29N 53°52' E 007°50'1314.2
2015-Jun-27 23:33N 53°46' E 008°10'1616.2
2015-Jun-27 22:33N 53°36' E 008°31'2 1.5
2015-Jun-27 21:33N 53°35' E 008°32'0 0.0
2015-Jun-27 20:33N 53°35' E 008°32'0 0.0
2015-Jun-27 19:32N 53°35' E 008°32'0 0.0
2015-Jun-27 18:32N 53°35' E 008°32'0 0.0
2015-Jun-27 17:31N 53°35' E 008°32'0 0.0
2015-Jun-27 16:31N 53°35' E 008°32'0 0.0
2015-Jun-27 15:31N 53°35' E 008°32'0 0.0
2015-Jun-27 14:33N 53°35' E 008°32'0 0.0
2015-Jun-27 13:33N 53°35' E 008°32'0 0.0
2015-Jun-27 12:32N 53°35' E 008°32'0 0.0
2015-Jun-27 11:32N 53°35' E 008°32'0 0.0
2015-Jun-27 10:31N 53°35' E 008°32'0 0.0
2015-Jun-27 09:31N 53°35' E 008°32'0 0.0
2015-Jun-27 08:31N 53°35' E 008°32'0 0.0
2015-Jun-27 07:33N 53°35' E 008°32'0 0.0
2015-Jun-27 06:33N 53°35' E 008°32'0 0.0
2015-Jun-27 05:33N 53°35' E 008°32'0 0.0
2015-Jun-27 04:32N 53°35' E 008°32'0 0.0
2015-Jun-27 03:33N 53°35' E 008°32'5 5.4
2015-Jun-27 02:33N 53°38' E 008°25'1717.0
2015-Jun-27 01:33N 53°50' E 008°04'1313.2
2015-Jun-27 00:33N 53°53' E 007°42'1515.0
2015-Jun-26 23:34N 53°53' E 007°17'1919.3
2015-Jun-26 22:33N 53°48' E 006°46'1919.2
2015-Jun-26 21:33N 53°44' E 006°14'1919.4
2015-Jun-26 20:34N 53°37' E 005°43'1919.3
2015-Jun-26 19:33N 53°31' E 005°13'1919.2
2015-Jun-26 18:33N 53°23' E 004°43'2019.6
2015-Jun-26 17:33N 53°06' E 004°26'2019.6
2015-Jun-26 16:33N 52°49' E 004°12'1919.4
2015-Jun-26 15:33N 52°32' E 003°56'1919.0
2015-Jun-26 14:33N 52°13' E 003°54'1313.0
2015-Jun-26 13:33N 52°01' E 003°60'4 3.7
2015-Jun-26 12:34N 51°58' E 004°03'0 0.0
2015-Jun-26 11:33N 51°58' E 004°03'0 0.0
2015-Jun-26 10:33N 51°58' E 004°03'0 0.0
2015-Jun-26 09:33N 51°58' E 004°03'0 0.0
2015-Jun-26 08:33N 51°58' E 004°03'0 0.0
2015-Jun-26 07:34N 51°58' E 004°03'0 0.0
2015-Jun-26 06:33N 51°58' E 004°03'0 0.0
2015-Jun-26 05:33N 51°58' E 004°03'0 0.0
2015-Jun-26 04:33N 51°58' E 004°03'0 0.0
2015-Jun-26 03:33N 51°58' E 004°03'0 0.0
2015-Jun-26 02:34N 51°58' E 004°03'0 0.0
2015-Jun-26 01:34N 51°58' E 004°03'0 0.0
2015-Jun-26 00:34N 51°58' E 004°03'1 1.2
2015-Jun-25 23:34N 51°58' E 004°05'10 9.6
2015-Jun-25 22:33N 51°60' E 003°50'1413.6
2015-Jun-25 21:33N 51°56' E 003°28'1515.5
2015-Jun-25 20:33N 51°43' E 003°15'1515.3
2015-Jun-25 19:33N 51°30' E 003°28'1110.5
2015-Jun-25 18:33N 51°25' E 003°43'9 9.4
2015-Jun-25 17:33N 51°25' E 003°58'9 8.5
2015-Jun-25 16:33N 51°24' E 004°11'5 4.9
2015-Jun-25 15:33N 51°21' E 004°17'0 0.1
2015-Jun-25 14:33N 51°21' E 004°17'1 1.0
2015-Jun-25 13:33N 51°20' E 004°18'1 1.4
2015-Jun-25 12:33N 51°20' E 004°20'0 0.0
2015-Jun-25 11:33N 51°20' E 004°21'0 0.0
2015-Jun-25 10:32N 51°20' E 004°20'0 0.0
2015-Jun-25 09:29N 51°20' E 004°20'0 0.0
2015-Jun-25 08:31N 51°20' E 004°21'0 0.0
2015-Jun-25 07:31N 51°20' E 004°20'0 0.0
2015-Jun-25 06:21N 51°20' E 004°21'0 0.0
2015-Jun-25 05:30N 51°20' E 004°21'0 0.0
2015-Jun-25 04:33N 51°20' E 004°20'0 0.0
2015-Jun-25 03:32N 51°20' E 004°21'0 0.0
2015-Jun-25 02:29N 51°20' E 004°20'0 0.0
2015-Jun-25 01:31N 51°20' E 004°21'0 0.0
2015-Jun-25 00:25N 51°20' E 004°20'0 0.0
2015-Jun-24 23:31N 51°20' E 004°21'0 0.0
2015-Jun-24 22:33N 51°20' E 004°21'0 0.0
2015-Jun-24 21:33N 51°20' E 004°21'0 0.0
2015-Jun-24 20:14N 51°20' E 004°21'0 0.0
2015-Jun-24 19:32N 51°20' E 004°20'0 0.0
2015-Jun-24 18:31N 51°20' E 004°20'0 0.0
2015-Jun-24 17:26N 51°20' E 004°21'2 2.4
2015-Jun-24 16:33N 51°21' E 004°17'0 0.2
2015-Jun-24 15:33N 51°21' E 004°17'5 5.1
2015-Jun-24 14:33N 51°23' E 004°10'8 7.8
2015-Jun-24 13:33N 51°24' E 003°57'9 9.3
2015-Jun-24 12:33N 51°25' E 003°42'1110.9
2015-Jun-24 11:33N 51°25' E 003°25'1615.8
2015-Jun-24 10:33N 51°23' E 002°60'1413.8
2015-Jun-24 09:33N 51°22' E 002°38'10 9.5
2015-Jun-24 08:33N 51°20' E 002°23'1111.1
2015-Jun-24 07:33N 51°14' E 002°08'1313.0
2015-Jun-24 06:33N 51°08' E 001°49'1413.9
2015-Jun-24 05:33N 50°59' E 001°33'1616.4
2015-Jun-24 04:33N 50°44' E 001°22'1616.3
2015-Jun-24 03:33N 50°32' E 001°04'5516.4
2015-Jun-24 00:12N 50°16' W 000°18'1216.5
2015-Jun-23 23:30N 50°13' W 000°36'1716.8
2015-Jun-23 22:30N 50°09' W 001°01'1617.1
2015-Jun-23 21:33N 50°05' W 001°26'1816.6
2015-Jun-23 20:29N 49°60' W 001°52'26218.1
2015-Jun-23 06:00N 49°36' W 008°36'6220.7 130 / 131019.010.8 1.513.5 9.0
2015-Jun-23 03:00N 49°36' W 010°12'21519.5 290 / 21017.0 2.2 0.516.0
2015-Jun-22 16:00N 49°24' W 015°42'55819.9 220 / 151017.0 5.4 2.020.0
2015-Jun-21 12:00N 47°42' W 029°30'88020.9 230 / 301012.0 0.5 3.018.0
2015-Jun-19 18:00N 42°12' W 048°42'   060 / 231013.0 5.4 2.519.0

Dump ship's entire track history